Terminal Aerodrome Forecast
Issued by NWS Omaha/Valley, NE

Home | Current Version | Previous Version | Text Only | Print | Product List | Glossary Off
Versions: 1 2 3 4 5 6 7 8 9 10 11 12 13 14 15 16 17 18 19 20 21 22 23 24 25 26 27 28 29 30 31

000
FTUS43 KOAX 240828 AAB
TAFOFK
TAF AMD
KOFK 240828Z 2408/2506 36008KT 6SM -RA SCT007 OVC070
      TEMPO 2409/2411 4SM -RA BR BKN007
     FM241100 01008KT 5SM -SHRA BR OVC007
     FM241400 02013G20KT 5SM -SHRA OVC008=

USA.gov is the U.S. government's official web portal to all federal, state and local government web resources and services.